Time;durP1;ratioP1;P1;durP2;ratioP2;P2;SDS_P1;SDS_P2;PMS_P1;PMS_P2;Temp;Humidity;BMP_temperature;BMP_pressure;BME280_temperature;BME280_humidity;BME280_pressure;Samples;Min_cycle;Max_cycle;Signal;HPM_P1;HPM_P2
2022/06/25 00:00:11;;;;;;;;;;;18.00;95.10;;;;;;5069859;28;20472;-79
2022/06/25 00:02:38;;;;;;;;;;;18.00;95.10;;;;;;5073355;28;19931;-78
2022/06/25 00:07:50;;;;;;;;;;;18.00;95.10;;;;;;5049586;28;20375;-79
2022/06/25 00:10:17;;;;;;;;;;;18.00;95.10;;;;;;5060021;28;19971;-79
2022/06/25 00:12:44;;;;;;;;;;;17.90;95.10;;;;;;5061624;28;19968;-78
2022/06/25 00:15:11;;;;;;;;;;;17.90;95.20;;;;;;5062490;28;19932;-79
2022/06/25 00:17:38;;;;;;;;;;;17.90;95.40;;;;;;5077253;28;19924;-78
2022/06/25 00:20:05;;;;;;;;;;;17.90;95.40;;;;;;5067239;28;20306;-79
2022/06/25 00:22:32;;;;;;;;;;;17.90;95.40;;;;;;5070265;28;19928;-78
2022/06/25 00:24:59;;;;;;;;;;;17.90;95.50;;;;;;5069838;28;19988;-79
2022/06/25 00:27:25;;;;;;;;;;;17.90;95.60;;;;;;5071657;28;19988;-79
2022/06/25 00:29:54;;;;;;;;;;;17.90;95.50;;;;;;5054445;28;20387;-79
2022/06/25 00:32:21;;;;;;;;;;;17.90;95.50;;;;;;5052117;28;19967;-78
2022/06/25 00:34:48;;;;;;;;;;;17.80;95.50;;;;;;5062714;28;20028;-79
2022/06/25 00:37:16;;;;;;;;;;;17.80;95.60;;;;;;5055100;28;20014;-79
2022/06/25 00:39:44;;;;;;;;;;;17.80;95.70;;;;;;5070620;28;19924;-79
2022/06/25 00:42:11;;;;;;;;;;;17.80;95.70;;;;;;5049503;28;19928;-79
2022/06/25 00:44:38;;;;;;;;;;;17.80;95.80;;;;;;5066665;28;19924;-79
2022/06/25 00:47:08;;;;;;;;;;;17.80;95.70;;;;;;5068023;28;20337;-79
2022/06/25 00:49:35;;;;;;;;;;;17.80;95.70;;;;;;5073151;28;19934;-79
2022/06/25 00:52:03;;;;;;;;;;;17.80;95.70;;;;;;5067298;28;20299;-79
2022/06/25 00:54:31;;;;;;;;;;;17.70;95.70;;;;;;5065884;28;19932;-79
2022/06/25 00:56:59;;;;;;;;;;;17.70;95.80;;;;;;5068218;28;19931;-79
2022/06/25 00:59:28;;;;;;;;;;;17.70;95.80;;;;;;5058929;28;21328;-79
2022/06/25 01:01:55;;;;;;;;;;;17.70;95.80;;;;;;5061594;28;19967;-79
2022/06/25 01:04:23;;;;;;;;;;;17.70;95.80;;;;;;5051253;28;20405;-79
2022/06/25 01:06:50;;;;;;;;;;;17.70;95.80;;;;;;5046210;28;19974;-79
2022/06/25 01:09:17;;;;;;;;;;;17.60;95.70;;;;;;5073645;28;19928;-79
2022/06/25 01:11:44;;;;;;;;;;;17.60;95.70;;;;;;5069733;28;19929;-79
2022/06/25 01:14:12;;;;;;;;;;;17.60;95.70;;;;;;5048377;28;19924;-79
2022/06/25 01:16:39;;;;;;;;;;;17.60;95.80;;;;;;5061572;28;19928;-79
2022/06/25 01:19:07;;;;;;;;;;;17.60;95.80;;;;;;5059304;28;19959;-79
2022/06/25 01:21:36;;;;;;;;;;;17.60;95.90;;;;;;5054559;28;19929;-79
2022/06/25 01:24:06;;;;;;;;;;;17.60;95.80;;;;;;5047049;28;19929;-79
2022/06/25 01:26:33;;;;;;;;;;;17.60;96.00;;;;;;5064717;28;19969;-79
2022/06/25 01:29:00;;;;;;;;;;;17.60;96.00;;;;;;5061694;28;19947;-79
2022/06/25 01:31:27;;;;;;;;;;;17.50;95.80;;;;;;5052508;28;20436;-76
2022/06/25 01:33:57;;;;;;;;;;;17.50;96.00;;;;;;5062517;28;19939;-78
2022/06/25 01:36:24;;;;;;;;;;;17.50;95.90;;;;;;5069116;28;20309;-79
2022/06/25 01:38:51;;;;;;;;;;;17.50;96.10;;;;;;5058785;28;20477;-79
2022/06/25 01:41:19;;;;;;;;;;;17.40;95.90;;;;;;5061447;28;19958;-79
2022/06/25 01:43:46;;;;;;;;;;;17.40;96.00;;;;;;5061822;28;19931;-79
2022/06/25 01:46:13;;;;;;;;;;;17.50;96.00;;;;;;5054290;28;19928;-79
2022/06/25 01:48:40;;;;;;;;;;;17.40;96.10;;;;;;5053906;28;19928;-79
2022/06/25 01:51:07;;;;;;;;;;;17.40;96.00;;;;;;5053529;28;20411;-79
2022/06/25 01:53:34;;;;;;;;;;;17.40;96.00;;;;;;5048195;28;20384;-79
2022/06/25 01:56:02;;;;;;;;;;;17.40;96.00;;;;;;5060186;28;19939;-79
2022/06/25 01:58:31;;;;;;;;;;;17.30;95.90;;;;;;5068088;28;19925;-79
2022/06/25 02:00:57;;;;;;;;;;;17.40;96.10;;;;;;5064017;28;19924;-79
2022/06/25 02:03:24;;;;;;;;;;;17.30;96.00;;;;;;5066817;28;19924;-79
2022/06/25 02:06:00;;;;;;;;;;;17.30;96.10;;;;;;5067044;28;20352;-79
2022/06/25 02:08:29;;;;;;;;;;;17.30;96.10;;;;;;5064782;28;20444;-79
2022/06/25 02:10:56;;;;;;;;;;;17.30;96.10;;;;;;5065384;28;20363;-76
2022/06/25 02:13:24;;;;;;;;;;;17.20;96.00;;;;;;5064233;28;20346;-76
2022/06/25 02:15:52;;;;;;;;;;;17.30;96.10;;;;;;5066954;28;19928;-76
2022/06/25 02:18:19;;;;;;;;;;;17.20;96.00;;;;;;5066465;28;19973;-76
2022/06/25 02:20:46;;;;;;;;;;;17.20;96.10;;;;;;5049396;28;19928;-79
2022/06/25 02:23:14;;;;;;;;;;;17.20;96.10;;;;;;5054474;28;19951;-79
2022/06/25 02:25:41;;;;;;;;;;;17.20;96.10;;;;;;5057843;28;19924;-79
2022/06/25 02:28:08;;;;;;;;;;;17.20;96.10;;;;;;5065440;28;19986;-79
2022/06/25 02:30:35;;;;;;;;;;;17.20;96.20;;;;;;5070940;28;19928;-78
2022/06/25 02:33:04;;;;;;;;;;;17.20;96.20;;;;;;5054096;28;19928;-79
2022/06/25 02:35:31;;;;;;;;;;;17.10;96.20;;;;;;5060508;28;19931;-79
2022/06/25 02:37:58;;;;;;;;;;;17.20;96.60;;;;;;5063129;28;19932;-79
2022/06/25 02:40:28;;;;;;;;;;;17.10;96.20;;;;;;5061369;28;19936;-79
2022/06/25 02:42:55;;;;;;;;;;;17.10;96.30;;;;;;5052083;28;19932;-79
2022/06/25 02:45:22;;;;;;;;;;;17.10;96.30;;;;;;5070240;28;19924;-79
2022/06/25 02:47:50;;;;;;;;;;;17.10;96.30;;;;;;5059684;28;19938;-79
2022/06/25 02:50:19;;;;;;;;;;;17.00;96.30;;;;;;5057943;28;19925;-79
2022/06/25 02:52:46;;;;;;;;;;;17.00;96.30;;;;;;5058276;28;19944;-79
2022/06/25 02:55:16;;;;;;;;;;;17.00;96.30;;;;;;5068422;28;19925;-79
2022/06/25 03:00:38;;;;;;;;;;;17.00;96.40;;;;;;5061076;28;19925;-79
2022/06/25 03:03:05;;;;;;;;;;;17.00;96.40;;;;;;5047884;28;20327;-79
2022/06/25 03:05:34;;;;;;;;;;;17.00;96.40;;;;;;5058698;28;19925;-79
2022/06/25 03:08:01;;;;;;;;;;;16.90;96.30;;;;;;5065347;28;20402;-79
2022/06/25 03:10:28;;;;;;;;;;;17.00;96.40;;;;;;5050187;28;19939;-79
2022/06/25 03:12:56;;;;;;;;;;;16.90;96.40;;;;;;5065593;28;19924;-79
2022/06/25 03:15:25;;;;;;;;;;;16.90;96.50;;;;;;5062345;28;19925;-79
2022/06/25 03:17:52;;;;;;;;;;;16.90;96.50;;;;;;5054600;28;19960;-79
2022/06/25 03:20:39;;;;;;;;;;;16.90;96.50;;;;;;5070551;28;19930;-79
2022/06/25 03:23:07;;;;;;;;;;;16.90;96.60;;;;;;5053472;28;20349;-78
2022/06/25 04:38:37;;;;;;;;;;;16.50;96.80;;;;;;5077915;28;19909;-86
2022/06/25 04:41:07;;;;;;;;;;;16.50;96.80;;;;;;5072044;28;19908;-85
2022/06/25 05:16:12;;;;;;;;;;;16.50;97.20;;;;;;5082592;28;19909;-86
2022/06/25 05:18:47;;;;;;;;;;;16.50;97.20;;;;;;5081061;28;19912;-86
2022/06/25 05:21:21;;;;;;;;;;;16.50;97.20;;;;;;5082617;28;19920;-86
2022/06/25 08:41:31;;;;;;;;;;;18.10;98.50;;;;;;5586674;22;19924;-81
2022/06/25 09:00:41;;;;;;;;;;;18.20;98.30;;;;;;5021818;28;19932;-80
2022/06/25 09:25:37;;;;;;;;;;;18.30;98.20;;;;;;5066208;22;19971;-78
2022/06/25 09:28:04;;;;;;;;;;;18.30;98.30;;;;;;5050583;28;20372;-77
2022/06/25 09:30:32;;;;;;;;;;;18.40;98.30;;;;;;5062978;28;19928;-77
2022/06/25 09:33:00;;;;;;;;;;;18.40;98.30;;;;;;5061632;28;19940;-77
2022/06/25 09:35:31;;;;;;;;;;;18.40;98.20;;;;;;5068503;28;19996;-79
2022/06/25 09:38:01;;;;;;;;;;;18.60;98.00;;;;;;5073996;28;19998;-79
2022/06/25 09:40:28;;;;;;;;;;;18.60;97.90;;;;;;5068215;28;19928;-79
2022/06/25 09:42:57;;;;;;;;;;;18.60;98.00;;;;;;5069764;28;19933;-79
2022/06/25 09:45:25;;;;;;;;;;;18.60;98.10;;;;;;5076844;28;19924;-79
2022/06/25 09:47:51;;;;;;;;;;;18.60;98.20;;;;;;5069354;28;19929;-79
2022/06/25 09:50:19;;;;;;;;;;;18.60;98.20;;;;;;5056244;28;19970;-79
2022/06/25 09:52:50;;;;;;;;;;;18.60;98.30;;;;;;5069579;28;19928;-80
2022/06/25 09:55:17;;;;;;;;;;;18.60;98.20;;;;;;5071674;28;19925;-80
2022/06/25 09:57:45;;;;;;;;;;;18.60;98.30;;;;;;5052009;28;19990;-80
2022/06/25 10:00:14;;;;;;;;;;;18.60;98.30;;;;;;5057702;28;19928;-79
2022/06/25 10:02:42;;;;;;;;;;;18.60;98.30;;;;;;5069099;28;19924;-81
2022/06/25 10:05:09;;;;;;;;;;;18.60;98.30;;;;;;5072945;28;19944;-79
2022/06/25 10:10:22;;;;;;;;;;;18.70;98.30;;;;;;5065005;28;20087;-79
2022/06/25 10:12:49;;;;;;;;;;;18.70;98.20;;;;;;5054387;28;20477;-80
2022/06/25 10:15:19;;;;;;;;;;;18.70;98.20;;;;;;5057972;28;19925;-79
2022/06/25 10:17:47;;;;;;;;;;;18.70;98.20;;;;;;5052840;28;19946;-80
2022/06/25 10:20:14;;;;;;;;;;;18.70;98.20;;;;;;5057936;28;19963;-80
2022/06/25 10:22:41;;;;;;;;;;;18.70;98.30;;;;;;5071392;28;20263;-79
2022/06/25 10:25:10;;;;;;;;;;;18.80;98.30;;;;;;5072623;28;19932;-79
2022/06/25 10:27:40;;;;;;;;;;;18.80;98.30;;;;;;5076285;28;19925;-80
2022/06/25 10:30:07;;;;;;;;;;;18.80;98.20;;;;;;5072751;28;19924;-80
2022/06/25 10:32:42;;;;;;;;;;;18.80;98.20;;;;;;5053605;28;19950;-79
2022/06/25 10:35:09;;;;;;;;;;;18.80;98.20;;;;;;5057298;28;19935;-80
2022/06/25 10:37:50;;;;;;;;;;;18.80;98.20;;;;;;5054559;28;20425;-79
2022/06/25 10:40:18;;;;;;;;;;;18.90;98.20;;;;;;5067680;28;19928;-80
2022/06/25 10:42:59;;;;;;;;;;;18.90;98.10;;;;;;5063562;28;19939;-79
2022/06/25 10:45:50;;;;;;;;;;;18.90;98.10;;;;;;5045957;28;19921;-80
2022/06/25 10:48:19;;;;;;;;;;;18.90;98.00;;;;;;5072170;28;19935;-80
2022/06/25 10:50:50;;;;;;;;;;;19.00;98.00;;;;;;5043214;28;19929;-80
2022/06/25 10:53:17;;;;;;;;;;;19.00;97.90;;;;;;5044674;28;19932;-85
2022/06/25 10:55:59;;;;;;;;;;;19.00;97.90;;;;;;5070430;28;20444;-88
2022/06/25 10:58:26;;;;;;;;;;;19.00;97.80;;;;;;5068992;28;19924;-81
2022/06/25 11:00:54;;;;;;;;;;;19.00;97.80;;;;;;5061185;28;20346;-79
2022/06/25 11:03:43;;;;;;;;;;;19.00;97.70;;;;;;5065996;28;20413;-81
2022/06/25 11:06:20;;;;;;;;;;;19.10;97.80;;;;;;5070856;28;20406;-80
2022/06/25 11:08:47;;;;;;;;;;;19.10;97.70;;;;;;5046943;28;20008;-79
2022/06/25 11:11:22;;;;;;;;;;;19.10;97.70;;;;;;5056807;28;19928;-79
2022/06/25 11:13:49;;;;;;;;;;;19.10;97.70;;;;;;5064595;28;19931;-79
2022/06/25 11:16:17;;;;;;;;;;;19.10;97.60;;;;;;5076146;28;19925;-79
2022/06/25 11:18:48;;;;;;;;;;;19.20;97.60;;;;;;5069519;28;20367;-78
2022/06/25 11:21:29;;;;;;;;;;;19.20;97.50;;;;;;5070379;28;19925;-78
2022/06/25 11:24:10;;;;;;;;;;;19.20;97.40;;;;;;5043238;28;19932;-79
2022/06/25 11:29:22;;;;;;;;;;;19.20;97.40;;;;;;5069429;28;19987;-79
2022/06/25 11:31:50;;;;;;;;;;;19.20;97.40;;;;;;5051027;28;19967;-79
2022/06/25 11:34:19;;;;;;;;;;;19.20;97.40;;;;;;5069491;28;19978;-80
2022/06/25 11:36:46;;;;;;;;;;;19.30;97.40;;;;;;5067183;28;20003;-80
2022/06/25 11:39:15;;;;;;;;;;;19.20;97.30;;;;;;5068346;28;20391;-80
2022/06/25 11:41:45;;;;;;;;;;;19.30;97.40;;;;;;5043587;28;19947;-80
2022/06/25 11:44:12;;;;;;;;;;;19.30;97.40;;;;;;5051943;28;19991;-80
2022/06/25 11:46:38;;;;;;;;;;;19.30;97.40;;;;;;5067142;28;19928;-80
2022/06/25 11:49:06;;;;;;;;;;;19.40;97.50;;;;;;5063869;28;19982;-80
2022/06/25 11:51:34;;;;;;;;;;;19.40;97.50;;;;;;5064787;28;19931;-81
2022/06/25 11:54:04;;;;;;;;;;;19.40;97.50;;;;;;5048788;28;19925;-80
2022/06/25 11:56:31;;;;;;;;;;;19.50;97.50;;;;;;5068530;28;19924;-80
2022/06/25 11:58:58;;;;;;;;;;;19.50;97.60;;;;;;5065647;28;19993;-80
2022/06/25 12:01:27;;;;;;;;;;;19.50;97.60;;;;;;5063176;28;20498;-79
2022/06/25 12:03:54;;;;;;;;;;;19.60;97.70;;;;;;5046818;28;20194;-79
2022/06/25 12:06:22;;;;;;;;;;;19.60;97.80;;;;;;5064789;28;20391;-80
2022/06/25 12:08:51;;;;;;;;;;;19.60;97.80;;;;;;5067874;28;19925;-79
2022/06/25 12:11:19;;;;;;;;;;;19.60;97.80;;;;;;5046373;28;19924;-81
2022/06/25 12:13:45;;;;;;;;;;;19.60;97.90;;;;;;5061797;28;20336;-80
2022/06/25 12:16:12;;;;;;;;;;;19.70;98.00;;;;;;5067836;28;20283;-80
2022/06/25 12:18:40;;;;;;;;;;;19.70;98.10;;;;;;5066127;28;19928;-78
2022/06/25 12:21:07;;;;;;;;;;;19.80;98.20;;;;;;5068083;28;19960;-79
2022/06/25 12:23:51;;;;;;;;;;;19.80;98.20;;;;;;5069334;28;20322;-78
2022/06/25 12:26:25;;;;;;;;;;;19.90;98.20;;;;;;5052775;28;19925;-78
2022/06/25 12:28:52;;;;;;;;;;;19.90;98.20;;;;;;5048016;28;20027;-78
2022/06/25 12:31:19;;;;;;;;;;;20.00;98.30;;;;;;5041323;28;20312;-78
2022/06/25 12:33:49;;;;;;;;;;;20.00;98.30;;;;;;5059263;28;19968;-79
2022/06/25 12:36:19;;;;;;;;;;;20.10;98.40;;;;;;5067256;28;19978;-78
2022/06/25 12:38:46;;;;;;;;;;;20.10;98.30;;;;;;5072834;28;19924;-78
2022/06/25 12:41:14;;;;;;;;;;;20.10;98.20;;;;;;5044213;28;19955;-78
2022/06/25 12:43:45;;;;;;;;;;;20.20;98.20;;;;;;5049830;28;19967;-78
2022/06/25 12:46:12;;;;;;;;;;;20.20;98.10;;;;;;5054661;28;19952;-79
2022/06/25 12:48:38;;;;;;;;;;;20.30;98.20;;;;;;5063878;28;19925;-78
2022/06/25 12:51:09;;;;;;;;;;;20.30;98.20;;;;;;5069309;28;19934;-78
2022/06/25 12:53:37;;;;;;;;;;;20.40;98.30;;;;;;5065268;28;20263;-79
2022/06/25 12:56:04;;;;;;;;;;;20.40;98.30;;;;;;5067143;28;19974;-79
2022/06/25 12:58:35;;;;;;;;;;;20.40;98.20;;;;;;5073648;28;19930;-79
2022/06/25 13:01:17;;;;;;;;;;;20.50;98.10;;;;;;5067754;28;19952;-78
2022/06/25 13:03:44;;;;;;;;;;;20.50;98.00;;;;;;5051618;28;19933;-78
2022/06/25 13:06:11;;;;;;;;;;;20.60;98.10;;;;;;5049555;28;19924;-79
2022/06/25 13:08:37;;;;;;;;;;;20.60;98.10;;;;;;5054613;28;19987;-83
2022/06/25 13:11:05;;;;;;;;;;;;;;;;;;5044726;28;19924;-79
2022/06/25 13:13:32;;;;;;;;;;;20.60;99.90;;;;;;5068376;28;20398;-80
2022/06/25 13:16:01;;;;;;;;;;;20.80;97.50;;;;;;5060886;28;20413;-79
2022/06/25 13:18:27;;;;;;;;;;;20.80;97.80;;;;;;5043093;28;19925;-80
2022/06/25 13:20:54;;;;;;;;;;;20.90;97.90;;;;;;5042889;28;19946;-79
2022/06/25 13:23:21;;;;;;;;;;;20.90;98.00;;;;;;5043084;28;19925;-87
2022/06/25 13:25:48;;;;;;;;;;;;;;;;;;5048317;28;19933;-78
2022/06/25 13:28:15;;;;;;;;;;;21.00;97.70;;;;;;5050382;28;19928;-78
2022/06/25 13:30:42;;;;;;;;;;;21.10;98.00;;;;;;5040570;28;20219;-78
2022/06/25 13:33:10;;;;;;;;;;;21.10;98.00;;;;;;5074650;28;19928;-80
2022/06/25 13:35:37;;;;;;;;;;;21.20;98.00;;;;;;5069530;28;19924;-80
2022/06/25 13:38:04;;;;;;;;;;;21.20;97.90;;;;;;5072989;28;19947;-80
2022/06/25 13:40:31;;;;;;;;;;;21.30;97.90;;;;;;5063812;28;19974;-80
2022/06/25 13:42:58;;;;;;;;;;;21.30;97.80;;;;;;5057834;28;19933;-88
2022/06/25 13:45:24;;;;;;;;;;;21.40;97.80;;;;;;5067651;28;19935;-83
2022/06/25 13:47:51;;;;;;;;;;;21.40;97.70;;;;;;5059434;28;20001;-82
2022/06/25 13:50:19;;;;;;;;;;;21.40;97.90;;;;;;5041341;28;19925;-82
2022/06/25 13:52:46;;;;;;;;;;;21.50;97.60;;;;;;5046062;28;19951;-83
2022/06/25 13:55:13;;;;;;;;;;;21.50;97.40;;;;;;5060288;28;20302;-83
2022/06/25 13:57:43;;;;;;;;;;;21.50;97.30;;;;;;5061395;28;19928;-81
2022/06/25 14:00:10;;;;;;;;;;;21.60;97.10;;;;;;5062414;28;19955;-84
2022/06/25 14:02:37;;;;;;;;;;;21.60;97.00;;;;;;5059085;28;20379;-84
2022/06/25 14:05:04;;;;;;;;;;;21.60;96.90;;;;;;5062206;28;19966;-83
2022/06/25 14:07:32;;;;;;;;;;;21.70;96.90;;;;;;5064925;28;19924;-84
2022/06/25 14:09:59;;;;;;;;;;;21.70;96.80;;;;;;5056652;28;19985;-83
2022/06/25 14:12:26;;;;;;;;;;;21.80;96.80;;;;;;5053755;28;19930;-87
2022/06/25 14:14:54;;;;;;;;;;;21.80;96.70;;;;;;5045707;28;19994;-83
2022/06/25 14:17:23;;;;;;;;;;;21.80;96.70;;;;;;5065784;28;19928;-82
2022/06/25 14:19:49;;;;;;;;;;;21.80;96.60;;;;;;5066044;28;19924;-85
2022/06/25 14:22:16;;;;;;;;;;;21.90;96.60;;;;;;5044162;28;19928;-82
2022/06/25 14:27:28;;;;;;;;;;;22.00;96.30;;;;;;5058895;28;19928;-82
2022/06/25 14:29:55;;;;;;;;;;;22.00;96.00;;;;;;5054927;28;19928;-82
2022/06/25 14:32:22;;;;;;;;;;;22.00;95.80;;;;;;5071657;28;19924;-82
2022/06/25 14:34:49;;;;;;;;;;;22.10;95.80;;;;;;5073646;28;19932;-81
2022/06/25 14:42:45;;;;;;;;;;;22.20;95.70;;;;;;5052184;28;19933;-82
2022/06/25 14:45:12;;;;;;;;;;;22.30;95.80;;;;;;5049339;28;20582;-81
2022/06/25 14:47:42;;;;;;;;;;;22.20;95.30;;;;;;5068745;28;19936;-81
2022/06/25 14:50:10;;;;;;;;;;;22.30;95.40;;;;;;5072782;28;19935;-81
2022/06/25 14:52:37;;;;;;;;;;;22.40;95.50;;;;;;5058582;28;19932;-81
2022/06/25 14:55:06;;;;;;;;;;;22.40;95.40;;;;;;5066852;28;19978;-81
2022/06/25 14:57:33;;;;;;;;;;;22.50;95.50;;;;;;5074527;28;19974;-81
2022/06/25 15:00:00;;;;;;;;;;;22.50;95.50;;;;;;5071551;28;19924;-81
2022/06/25 15:02:27;;;;;;;;;;;22.60;95.40;;;;;;5048107;28;19948;-80
2022/06/25 15:04:54;;;;;;;;;;;22.60;95.40;;;;;;5050057;28;19925;-81
2022/06/25 15:07:22;;;;;;;;;;;22.70;95.40;;;;;;5052512;28;19932;-81
2022/06/25 15:09:49;;;;;;;;;;;22.70;95.60;;;;;;5070151;28;19931;-80
2022/06/25 15:12:17;;;;;;;;;;;22.80;96.10;;;;;;5052252;28;20071;-81
2022/06/25 15:14:44;;;;;;;;;;;22.80;96.10;;;;;;5064155;28;19959;-81
2022/06/25 15:17:11;;;;;;;;;;;22.80;95.40;;;;;;5059103;28;19924;-79
2022/06/25 15:19:38;;;;;;;;;;;;;;;;;;5052281;28;19982;-79
2022/06/25 15:22:05;;;;;;;;;;;23.00;95.10;;;;;;5071023;28;19925;-79
2022/06/25 15:24:32;;;;;;;;;;;23.00;95.20;;;;;;5071001;28;19947;-79
2022/06/25 15:26:59;;;;;;;;;;;23.00;95.20;;;;;;5067967;28;19951;-79
2022/06/25 15:29:27;;;;;;;;;;;23.10;95.00;;;;;;5048464;28;19955;-80
2022/06/25 15:31:54;;;;;;;;;;;23.10;95.30;;;;;;5072669;28;20383;-77
2022/06/25 15:34:21;;;;;;;;;;;23.20;95.00;;;;;;5039149;28;19968;-78
2022/06/25 15:36:49;;;;;;;;;;;23.20;94.20;;;;;;5056082;28;19924;-78
2022/06/25 15:39:16;;;;;;;;;;;23.30;94.10;;;;;;5040643;28;19924;-77
2022/06/25 15:41:43;;;;;;;;;;;23.30;94.10;;;;;;5058001;28;19924;-77
2022/06/25 15:44:09;;;;;;;;;;;23.40;94.20;;;;;;5064313;28;19933;-78
2022/06/25 15:46:39;;;;;;;;;;;23.40;94.30;;;;;;5051167;28;19924;-78
2022/06/25 15:49:05;;;;;;;;;;;23.40;94.40;;;;;;5074227;28;19928;-78
2022/06/25 15:51:32;;;;;;;;;;;23.50;94.20;;;;;;5070239;28;19932;-79
2022/06/25 15:53:59;;;;;;;;;;;23.50;94.30;;;;;;5074774;28;19924;-79
2022/06/25 15:56:26;;;;;;;;;;;23.50;94.30;;;;;;5062057;28;20310;-77
2022/06/25 16:01:40;;;;;;;;;;;23.70;94.20;;;;;;5022747;28;19925;-84
2022/06/25 16:04:07;;;;;;;;;;;23.70;94.40;;;;;;5028430;28;21337;-85
2022/06/25 16:06:33;;;;;;;;;;;23.70;94.40;;;;;;5025990;28;19925;-86
2022/06/25 16:09:00;;;;;;;;;;;23.80;94.60;;;;;;5017375;28;19936;-85
2022/06/25 16:11:34;;;;;;;;;;;23.80;94.40;;;;;;5021102;28;19925;-86
2022/06/25 16:14:01;;;;;;;;;;;23.80;94.30;;;;;;5022392;28;19925;-85
2022/06/25 16:16:29;;;;;;;;;;;23.90;94.50;;;;;;5024362;28;19925;-83
2022/06/25 16:18:58;;;;;;;;;;;23.90;94.50;;;;;;5025890;28;19929;-84
2022/06/25 16:21:24;;;;;;;;;;;24.00;94.40;;;;;;5025612;28;20010;-84
2022/06/25 16:23:52;;;;;;;;;;;;;;;;;;5023176;28;19925;-85
2022/06/25 16:26:18;;;;;;;;;;;24.00;94.20;;;;;;5019634;28;19983;-85
2022/06/25 16:28:45;;;;;;;;;;;24.00;94.40;;;;;;5025880;28;20023;-85
2022/06/25 16:31:12;;;;;;;;;;;24.10;94.40;;;;;;5022087;28;19926;-85
2022/06/25 16:33:39;;;;;;;;;;;24.10;94.40;;;;;;5021342;28;19957;-85
2022/06/25 16:36:07;;;;;;;;;;;24.20;94.50;;;;;;5021260;28;19932;-85
2022/06/25 16:38:34;;;;;;;;;;;24.20;94.40;;;;;;5029208;28;20365;-85
2022/06/25 16:41:02;;;;;;;;;;;24.20;94.30;;;;;;5014669;28;19936;-84
2022/06/25 16:46:10;;;;;;;;;;;24.30;94.30;;;;;;5021579;28;19925;-84
2022/06/25 16:48:37;;;;;;;;;;;24.30;94.30;;;;;;5029734;28;19933;-86
2022/06/25 16:51:06;;;;;;;;;;;24.40;94.20;;;;;;5027392;28;20308;-86
2022/06/25 16:53:34;;;;;;;;;;;24.40;94.10;;;;;;5023905;28;19925;-88
2022/06/25 16:56:01;;;;;;;;;;;24.40;94.00;;;;;;5020331;28;20296;-89
2022/06/25 16:58:28;;;;;;;;;;;24.50;94.00;;;;;;5027884;28;19929;-86
2022/06/25 17:00:55;;;;;;;;;;;24.50;94.00;;;;;;5023203;28;19933;-87
2022/06/25 17:03:23;;;;;;;;;;;24.60;94.00;;;;;;5025085;28;19968;-86
2022/06/25 17:05:50;;;;;;;;;;;24.50;94.00;;;;;;5024684;28;19971;-87
2022/06/25 17:08:17;;;;;;;;;;;24.60;93.90;;;;;;5029427;28;19925;-87
2022/06/25 17:10:45;;;;;;;;;;;24.60;93.70;;;;;;5021362;28;19976;-82
2022/06/25 17:13:12;;;;;;;;;;;24.60;93.60;;;;;;5025409;28;19925;-86
2022/06/25 17:15:39;;;;;;;;;;;24.70;93.70;;;;;;5020961;28;19926;-85
2022/06/25 17:18:05;;;;;;;;;;;24.70;93.60;;;;;;5033683;28;20603;-84
2022/06/25 17:20:32;;;;;;;;;;;24.80;93.50;;;;;;5019618;28;19988;-84
2022/06/25 17:22:59;;;;;;;;;;;24.80;93.50;;;;;;5019040;28;19930;-85
2022/06/25 17:25:26;;;;;;;;;;;24.80;93.60;;;;;;5027861;28;20383;-84
2022/06/25 17:27:54;;;;;;;;;;;24.80;93.40;;;;;;5020413;28;20003;-84
2022/06/25 17:30:22;;;;;;;;;;;24.90;93.40;;;;;;5026904;28;20413;-85
2022/06/25 17:32:49;;;;;;;;;;;24.90;93.40;;;;;;5020839;28;19968;-84
2022/06/25 17:35:15;;;;;;;;;;;24.90;93.50;;;;;;5022617;28;19956;-86
2022/06/25 17:37:42;;;;;;;;;;;24.90;93.30;;;;;;5020109;28;19925;-84
2022/06/25 17:40:10;;;;;;;;;;;24.90;93.10;;;;;;5040557;28;19933;-82
2022/06/25 17:42:37;;;;;;;;;;;24.90;93.10;;;;;;5025080;28;19929;-86
2022/06/25 17:45:07;;;;;;;;;;;24.90;93.30;;;;;;5019722;28;20006;-86
2022/06/25 17:47:34;;;;;;;;;;;24.90;93.20;;;;;;5023748;28;19925;-86
2022/06/25 17:50:01;;;;;;;;;;;25.00;93.20;;;;;;5014638;28;19933;-86
2022/06/25 17:52:28;;;;;;;;;;;25.00;93.20;;;;;;5018169;28;20469;-86
2022/06/25 17:54:55;;;;;;;;;;;25.00;93.00;;;;;;5021047;28;19925;-85
2022/06/25 17:57:23;;;;;;;;;;;25.00;93.00;;;;;;5029072;28;19925;-87
2022/06/25 17:59:49;;;;;;;;;;;25.00;93.10;;;;;;5029137;28;20640;-88
2022/06/25 18:02:18;;;;;;;;;;;25.00;93.00;;;;;;5028391;28;19925;-89
2022/06/25 18:04:45;;;;;;;;;;;25.00;93.00;;;;;;5028152;28;19934;-88
2022/06/25 18:07:12;;;;;;;;;;;25.00;92.90;;;;;;5031097;28;20017;-87
2022/06/25 18:09:38;;;;;;;;;;;25.00;92.70;;;;;;5030096;28;19931;-87
2022/06/25 18:12:06;;;;;;;;;;;25.00;92.70;;;;;;5021321;28;20441;-83
2022/06/25 18:14:32;;;;;;;;;;;25.00;92.80;;;;;;5027554;28;20395;-83
2022/06/25 18:16:59;;;;;;;;;;;25.00;92.60;;;;;;5028608;28;19933;-83
2022/06/25 18:19:27;;;;;;;;;;;25.00;92.60;;;;;;5038033;28;19991;-83
2022/06/25 18:21:54;;;;;;;;;;;25.00;92.70;;;;;;5087450;22;19920;-94
2022/06/25 18:24:21;;;;;;;;;;;25.00;92.60;;;;;;5076400;28;19963;-95
2022/06/25 18:26:48;;;;;;;;;;;25.00;92.60;;;;;;5091414;28;21366;-95
2022/06/25 18:29:15;;;;;;;;;;;25.00;92.60;;;;;;5074451;28;19988;-94
2022/06/25 18:31:44;;;;;;;;;;;25.00;92.70;;;;;;5076224;28;19992;-94
2022/06/25 18:34:11;;;;;;;;;;;25.00;92.70;;;;;;5072415;28;19943;-95
2022/06/25 18:36:40;;;;;;;;;;;25.00;92.70;;;;;;5068979;28;19932;-94
2022/06/25 18:39:07;;;;;;;;;;;25.00;92.70;;;;;;5074825;28;19909;-94
2022/06/25 18:41:34;;;;;;;;;;;25.00;92.70;;;;;;5059773;28;19976;-94
2022/06/25 18:44:01;;;;;;;;;;;24.90;92.70;;;;;;5069654;28;19927;-94
2022/06/25 18:46:29;;;;;;;;;;;24.90;92.70;;;;;;5057373;28;20040;-94
2022/06/25 18:48:56;;;;;;;;;;;24.90;92.70;;;;;;5070276;28;19930;-95
2022/06/25 18:51:23;;;;;;;;;;;24.90;92.70;;;;;;5053489;28;19932;-95
2022/06/25 18:53:52;;;;;;;;;;;24.90;92.60;;;;;;5069639;28;19929;-94
2022/06/25 18:56:21;;;;;;;;;;;24.90;92.50;;;;;;5071885;28;19909;-94
2022/06/25 18:58:48;;;;;;;;;;;24.80;92.30;;;;;;5073294;28;19996;-94
2022/06/25 19:01:16;;;;;;;;;;;24.80;92.10;;;;;;5057831;28;19935;-95
2022/06/25 19:03:43;;;;;;;;;;;24.80;92.00;;;;;;5070462;28;19912;-94
2022/06/25 19:06:10;;;;;;;;;;;24.70;91.80;;;;;;5068299;28;19978;-94
2022/06/25 19:08:37;;;;;;;;;;;24.70;91.70;;;;;;5073505;28;19983;-94
2022/06/25 19:11:06;;;;;;;;;;;24.70;91.50;;;;;;5057547;28;19956;-95
2022/06/25 19:13:33;;;;;;;;;;;24.60;91.40;;;;;;5057796;28;20363;-95
2022/06/25 19:16:01;;;;;;;;;;;24.60;91.20;;;;;;5075490;28;19939;-94
2022/06/25 19:18:28;;;;;;;;;;;24.60;91.00;;;;;;5052525;28;19925;-94
2022/06/25 19:20:55;;;;;;;;;;;24.60;90.90;;;;;;5064775;28;19913;-95
2022/06/25 19:23:22;;;;;;;;;;;24.50;90.70;;;;;;5054417;28;19916;-95
2022/06/25 19:25:49;;;;;;;;;;;24.50;90.50;;;;;;5058912;28;19923;-96
2022/06/25 19:28:18;;;;;;;;;;;24.50;90.40;;;;;;5069243;28;19931;-94
2022/06/25 19:30:46;;;;;;;;;;;24.50;90.40;;;;;;5070887;28;19921;-94
2022/06/25 19:33:13;;;;;;;;;;;24.40;90.20;;;;;;5071336;28;19933;-95
2022/06/25 19:35:40;;;;;;;;;;;24.40;90.10;;;;;;5055231;28;19913;-94
2022/06/25 19:38:07;;;;;;;;;;;24.40;90.00;;;;;;5075273;28;19940;-92
2022/06/25 19:40:34;;;;;;;;;;;24.30;90.00;;;;;;5070648;28;19933;-94
2022/06/25 19:43:01;;;;;;;;;;;24.30;90.00;;;;;;5070503;28;19913;-95
2022/06/25 19:45:30;;;;;;;;;;;24.30;90.00;;;;;;5054271;28;19913;-95
2022/06/25 19:47:56;;;;;;;;;;;24.20;89.90;;;;;;5069760;28;19933;-94
2022/06/25 19:50:24;;;;;;;;;;;24.20;89.70;;;;;;5070812;28;19976;-95
2022/06/25 19:52:51;;;;;;;;;;;24.20;89.70;;;;;;5059753;28;19916;-94
2022/06/25 19:55:18;;;;;;;;;;;24.20;89.60;;;;;;5055037;28;19913;-94
2022/06/25 19:57:45;;;;;;;;;;;24.10;89.30;;;;;;5067655;28;19931;-95
2022/06/25 20:00:13;;;;;;;;;;;24.10;89.20;;;;;;5071505;28;19965;-94
2022/06/25 20:02:42;;;;;;;;;;;24.10;89.10;;;;;;5072611;28;19913;-95
2022/06/25 20:05:13;;;;;;;;;;;24.00;89.10;;;;;;5068548;28;20196;-95
2022/06/25 20:07:43;;;;;;;;;;;24.00;89.20;;;;;;5072994;28;20041;-94
2022/06/25 20:10:11;;;;;;;;;;;24.00;89.20;;;;;;5071587;28;19988;-94
2022/06/25 20:12:38;;;;;;;;;;;24.00;89.40;;;;;;5050937;28;20035;-94
2022/06/25 20:15:06;;;;;;;;;;;24.00;89.40;;;;;;5053029;28;19921;-94
2022/06/25 20:17:33;;;;;;;;;;;23.90;89.30;;;;;;5051663;28;19947;-95
2022/06/25 20:20:03;;;;;;;;;;;23.90;89.30;;;;;;5055389;28;19925;-94
2022/06/25 20:22:30;;;;;;;;;;;23.90;89.30;;;;;;5054146;28;19932;-95
2022/06/25 20:24:57;;;;;;;;;;;23.90;89.30;;;;;;5055070;28;19919;-95
2022/06/25 20:27:24;;;;;;;;;;;23.80;89.20;;;;;;5069549;28;19908;-95
2022/06/25 20:29:52;;;;;;;;;;;23.80;89.30;;;;;;5068453;28;19913;-95